Time;durP1;ratioP1;P1;durP2;ratioP2;P2;SDS_P1;SDS_P2;PMS_P1;PMS_P2;Temp;Humidity;BMP_temperature;BMP_pressure;BME280_temperature;BME280_humidity;BME280_pressure;Samples;Min_cycle;Max_cycle;Signal;HPM_P1;HPM_P2
2022/09/02 00:02:00;;;;;;;;;;;15.50;99.90;;;;;;5005413;28;19926;-72
2022/09/02 00:04:26;;;;;;;;;;;15.50;99.90;;;;;;5004890;28;19928;-71
2022/09/02 00:06:53;;;;;;;;;;;15.50;99.90;;;;;;5003626;28;19926;-71
2022/09/02 00:09:20;;;;;;;;;;;15.50;99.90;;;;;;5004718;28;19929;-71
2022/09/02 00:11:47;;;;;;;;;;;15.40;99.90;;;;;;5004304;28;19925;-71
2022/09/02 00:14:14;;;;;;;;;;;15.40;99.90;;;;;;5004034;28;19929;-71
2022/09/02 00:16:41;;;;;;;;;;;15.40;99.90;;;;;;5003919;28;19930;-71
2022/09/02 00:19:07;;;;;;;;;;;15.40;99.90;;;;;;5004216;28;20428;-71
2022/09/02 00:21:33;;;;;;;;;;;15.40;99.90;;;;;;5003773;28;20020;-71
2022/09/02 00:23:59;;;;;;;;;;;15.40;99.90;;;;;;5004155;28;19971;-74
2022/09/02 00:26:25;;;;;;;;;;;15.40;99.90;;;;;;5004877;28;19926;-71
2022/09/02 00:28:50;;;;;;;;;;;15.40;99.90;;;;;;5003568;28;19926;-71
2022/09/02 00:31:16;;;;;;;;;;;15.30;99.90;;;;;;5004168;28;19926;-71
2022/09/02 00:33:42;;;;;;;;;;;15.30;99.90;;;;;;5004329;28;19947;-71
2022/09/02 00:36:07;;;;;;;;;;;15.30;99.90;;;;;;5003469;28;19925;-72
2022/09/02 00:38:34;;;;;;;;;;;15.30;99.90;;;;;;5004069;28;20539;-71
2022/09/02 00:41:01;;;;;;;;;;;15.30;99.90;;;;;;5004309;28;20366;-72
2022/09/02 00:43:45;;;;;;;;;;;15.20;99.90;;;;;;5004374;28;19926;-71
2022/09/02 00:46:11;;;;;;;;;;;15.20;99.90;;;;;;5003793;28;19926;-71
2022/09/02 00:48:40;;;;;;;;;;;15.20;99.90;;;;;;5003554;28;19980;-71
2022/09/02 00:51:06;;;;;;;;;;;15.20;99.90;;;;;;5002084;28;19933;-71
2022/09/02 00:53:31;;;;;;;;;;;15.20;99.90;;;;;;5003887;28;19952;-71
2022/09/02 00:55:57;;;;;;;;;;;15.20;99.90;;;;;;5002993;28;20340;-71
2022/09/02 00:58:24;;;;;;;;;;;15.20;99.90;;;;;;5003875;28;19936;-71
2022/09/02 01:00:51;;;;;;;;;;;15.20;99.90;;;;;;5003643;28;19932;-72
2022/09/02 01:03:18;;;;;;;;;;;15.20;99.90;;;;;;5004169;28;19926;-71
2022/09/02 01:05:45;;;;;;;;;;;15.10;99.90;;;;;;5003317;28;20347;-71
2022/09/02 01:08:15;;;;;;;;;;;15.10;99.90;;;;;;5002730;28;19925;-71
2022/09/02 01:10:41;;;;;;;;;;;15.10;99.90;;;;;;5003624;28;19925;-71
2022/09/02 01:13:09;;;;;;;;;;;15.10;99.90;;;;;;5004269;28;20044;-71
2022/09/02 01:15:36;;;;;;;;;;;15.00;99.90;;;;;;5002523;28;19925;-71
2022/09/02 01:18:02;;;;;;;;;;;15.00;99.90;;;;;;5003734;28;19948;-71
2022/09/02 01:20:28;;;;;;;;;;;15.00;99.90;;;;;;5004286;28;20047;-71
2022/09/02 01:22:54;;;;;;;;;;;15.00;99.90;;;;;;5007000;28;20383;-71
2022/09/02 01:25:21;;;;;;;;;;;15.00;99.90;;;;;;5006155;28;20044;-71
2022/09/02 01:27:47;;;;;;;;;;;15.00;99.90;;;;;;5007921;28;19922;-71
2022/09/02 01:30:17;;;;;;;;;;;15.00;99.90;;;;;;5007556;28;19926;-71
2022/09/02 01:32:42;;;;;;;;;;;14.90;99.90;;;;;;5007490;28;19922;-71
2022/09/02 01:35:09;;;;;;;;;;;14.90;99.90;;;;;;5007299;28;19925;-71
2022/09/02 01:37:37;;;;;;;;;;;14.90;99.90;;;;;;5006646;28;19921;-71
2022/09/02 01:40:03;;;;;;;;;;;14.90;99.90;;;;;;5007694;28;20009;-71
2022/09/02 01:42:29;;;;;;;;;;;14.80;99.90;;;;;;5007298;28;19926;-72
2022/09/02 01:44:54;;;;;;;;;;;14.80;99.90;;;;;;5007532;28;19925;-71
2022/09/02 01:47:23;;;;;;;;;;;14.80;99.90;;;;;;5007592;28;20290;-71
2022/09/02 01:49:49;;;;;;;;;;;14.80;99.90;;;;;;5006570;28;20429;-71
2022/09/02 01:52:14;;;;;;;;;;;14.70;99.90;;;;;;5006385;28;19933;-71
2022/09/02 01:54:40;;;;;;;;;;;14.70;99.90;;;;;;5006995;28;20395;-72
2022/09/02 01:57:05;;;;;;;;;;;14.80;99.90;;;;;;5007115;28;20312;-71
2022/09/02 01:59:31;;;;;;;;;;;14.70;99.90;;;;;;5006652;28;19925;-71
2022/09/02 02:01:56;;;;;;;;;;;14.70;99.90;;;;;;5005977;28;20013;-71
2022/09/02 02:04:23;;;;;;;;;;;14.70;99.90;;;;;;5005752;28;20588;-71
2022/09/02 02:06:49;;;;;;;;;;;14.70;99.90;;;;;;5005767;28;20024;-71
2022/09/02 02:09:15;;;;;;;;;;;14.70;99.90;;;;;;5006833;28;20008;-71
2022/09/02 02:11:41;;;;;;;;;;;14.70;99.90;;;;;;5006512;28;19971;-71
2022/09/02 02:14:07;;;;;;;;;;;14.60;99.90;;;;;;5006600;28;19929;-71
2022/09/02 02:16:32;;;;;;;;;;;14.70;99.90;;;;;;5006327;28;19967;-71
2022/09/02 02:18:58;;;;;;;;;;;14.60;99.90;;;;;;5007191;28;19932;-71
2022/09/02 02:21:25;;;;;;;;;;;14.60;99.90;;;;;;5005516;28;21506;-71
2022/09/02 02:23:51;;;;;;;;;;;14.60;99.90;;;;;;5006415;28;20443;-71
2022/09/02 02:26:16;;;;;;;;;;;14.50;99.90;;;;;;5006880;28;19932;-71
2022/09/02 02:28:42;;;;;;;;;;;14.50;99.90;;;;;;5006175;28;19953;-71
2022/09/02 02:31:08;;;;;;;;;;;14.50;99.90;;;;;;5006740;28;20004;-71
2022/09/02 02:33:34;;;;;;;;;;;14.40;99.90;;;;;;5004859;28;20602;-72
2022/09/02 02:36:00;;;;;;;;;;;14.40;99.90;;;;;;5005853;28;19925;-71
2022/09/02 02:38:26;;;;;;;;;;;14.40;99.90;;;;;;5006921;28;19925;-71
2022/09/02 02:40:56;;;;;;;;;;;14.40;99.90;;;;;;5005835;28;19925;-71
2022/09/02 02:43:22;;;;;;;;;;;14.40;99.90;;;;;;5005103;28;19926;-70
2022/09/02 02:45:48;;;;;;;;;;;14.30;99.90;;;;;;5005875;28;19928;-71
2022/09/02 02:48:13;;;;;;;;;;;14.40;99.90;;;;;;5006168;28;19925;-71
2022/09/02 02:50:39;;;;;;;;;;;14.40;99.90;;;;;;5005843;28;19925;-71
2022/09/02 02:53:04;;;;;;;;;;;14.30;99.90;;;;;;5005230;28;19921;-71
2022/09/02 02:55:30;;;;;;;;;;;14.30;99.90;;;;;;5006224;28;20304;-72
2022/09/02 02:57:55;;;;;;;;;;;14.30;99.90;;;;;;5006320;28;20021;-71
2022/09/02 03:00:25;;;;;;;;;;;14.30;99.90;;;;;;5005863;28;19926;-71
2022/09/02 03:02:53;;;;;;;;;;;14.30;99.90;;;;;;5005752;28;20392;-71
2022/09/02 03:05:19;;;;;;;;;;;14.30;99.90;;;;;;5005832;28;19960;-71
2022/09/02 03:07:44;;;;;;;;;;;14.30;99.90;;;;;;5036269;28;20706;-71
2022/09/02 03:10:11;;;;;;;;;;;14.20;99.90;;;;;;5006102;28;19926;-71
2022/09/02 03:12:38;;;;;;;;;;;14.20;99.90;;;;;;5005734;28;19926;-71
2022/09/02 03:15:04;;;;;;;;;;;14.20;99.90;;;;;;5005783;28;19933;-71
2022/09/02 03:17:30;;;;;;;;;;;14.20;99.90;;;;;;5005529;28;19931;-71
2022/09/02 03:19:58;;;;;;;;;;;14.20;99.90;;;;;;5005611;28;20444;-71
2022/09/02 03:22:24;;;;;;;;;;;14.20;99.90;;;;;;5005209;28;20017;-71
2022/09/02 03:24:49;;;;;;;;;;;14.20;99.90;;;;;;5003836;28;20017;-71
2022/09/02 03:27:15;;;;;;;;;;;14.20;99.90;;;;;;5004638;28;20393;-71
2022/09/02 03:29:40;;;;;;;;;;;14.20;99.90;;;;;;5005378;28;19925;-71
2022/09/02 03:32:06;;;;;;;;;;;14.20;99.90;;;;;;5005053;28;20370;-71
2022/09/02 03:34:31;;;;;;;;;;;14.20;99.90;;;;;;5004879;28;20012;-72
2022/09/02 03:36:57;;;;;;;;;;;14.20;99.90;;;;;;5004851;28;20424;-71
2022/09/02 03:39:23;;;;;;;;;;;14.10;99.90;;;;;;5005137;28;20415;-71
2022/09/02 03:41:49;;;;;;;;;;;14.10;99.90;;;;;;5004986;28;19936;-71
2022/09/02 03:44:15;;;;;;;;;;;14.10;99.90;;;;;;5004553;28;20379;-71
2022/09/02 03:46:40;;;;;;;;;;;14.20;99.90;;;;;;5004771;28;19956;-71
2022/09/02 03:49:06;;;;;;;;;;;14.10;99.90;;;;;;5004953;28;19926;-71
2022/09/02 03:51:32;;;;;;;;;;;14.10;99.90;;;;;;5004113;28;19926;-71
2022/09/02 03:53:57;;;;;;;;;;;14.00;99.90;;;;;;5005495;28;19934;-71
2022/09/02 03:56:24;;;;;;;;;;;14.00;99.90;;;;;;5005340;28;20299;-71
2022/09/02 03:58:50;;;;;;;;;;;14.00;99.90;;;;;;5004466;28;20060;-71
2022/09/02 04:01:17;;;;;;;;;;;14.00;99.90;;;;;;5004789;28;20060;-71
2022/09/02 04:03:42;;;;;;;;;;;14.00;99.90;;;;;;5004287;28;20383;-71
2022/09/02 04:06:10;;;;;;;;;;;14.00;99.90;;;;;;5004630;28;19952;-71
2022/09/02 04:08:36;;;;;;;;;;;13.90;99.90;;;;;;5004275;28;20250;-71
2022/09/02 04:11:05;;;;;;;;;;;14.00;99.90;;;;;;5004672;28;20372;-71
2022/09/02 04:13:31;;;;;;;;;;;13.90;99.90;;;;;;5004151;28;20410;-71
2022/09/02 04:15:57;;;;;;;;;;;13.90;99.90;;;;;;5004715;28;19925;-71
2022/09/02 04:18:22;;;;;;;;;;;13.90;99.90;;;;;;5036054;28;19926;-71
2022/09/02 04:20:48;;;;;;;;;;;13.90;99.90;;;;;;5003649;28;20438;-71
2022/09/02 04:23:14;;;;;;;;;;;13.80;99.90;;;;;;5004461;28;19925;-71
2022/09/02 04:25:43;;;;;;;;;;;13.80;99.90;;;;;;5004118;28;20617;-71
2022/09/02 04:28:09;;;;;;;;;;;13.80;99.90;;;;;;5004773;28;19929;-71
2022/09/02 04:30:37;;;;;;;;;;;13.80;99.90;;;;;;5004122;28;19925;-71
2022/09/02 04:33:02;;;;;;;;;;;13.70;99.90;;;;;;5004165;28;19949;-71
2022/09/02 04:35:28;;;;;;;;;;;13.70;99.90;;;;;;5003558;28;19932;-72
2022/09/02 04:37:53;;;;;;;;;;;13.70;99.90;;;;;;5005120;28;19995;-71
2022/09/02 04:40:19;;;;;;;;;;;13.70;99.90;;;;;;5004357;28;19932;-71
2022/09/02 04:42:46;;;;;;;;;;;13.70;99.90;;;;;;5003827;28;20536;-71
2022/09/02 04:45:11;;;;;;;;;;;13.70;99.90;;;;;;5004110;28;19952;-71
2022/09/02 04:47:37;;;;;;;;;;;13.60;99.90;;;;;;5003540;28;19925;-71
2022/09/02 04:50:02;;;;;;;;;;;13.60;99.90;;;;;;5035943;28;20625;-71
2022/09/02 04:52:28;;;;;;;;;;;13.60;99.90;;;;;;5004189;28;19972;-71
2022/09/02 04:54:53;;;;;;;;;;;13.60;99.90;;;;;;5004114;28;19930;-71
2022/09/02 04:57:19;;;;;;;;;;;13.60;99.90;;;;;;5002300;28;19972;-71
2022/09/02 04:59:45;;;;;;;;;;;13.70;99.90;;;;;;5003010;28;19926;-71
2022/09/02 05:02:10;;;;;;;;;;;13.60;99.90;;;;;;4994634;28;19953;-71
2022/09/02 05:04:36;;;;;;;;;;;13.60;99.90;;;;;;5002982;28;19926;-71
2022/09/02 05:07:02;;;;;;;;;;;13.50;99.90;;;;;;5002165;28;19933;-71
2022/09/02 05:09:28;;;;;;;;;;;13.50;99.90;;;;;;5003696;28;19948;-70
2022/09/02 05:11:56;;;;;;;;;;;13.50;99.90;;;;;;5003986;28;20003;-70
2022/09/02 05:14:22;;;;;;;;;;;13.50;99.90;;;;;;5003309;28;19947;-70
2022/09/02 05:16:48;;;;;;;;;;;13.50;99.90;;;;;;5002611;28;20020;-70
2022/09/02 05:19:14;;;;;;;;;;;13.50;99.90;;;;;;5003887;28;19936;-71
2022/09/02 05:21:40;;;;;;;;;;;13.50;99.90;;;;;;5001812;28;20489;-70
2022/09/02 05:24:06;;;;;;;;;;;13.50;99.90;;;;;;5017859;28;19925;-70
2022/09/02 05:26:34;;;;;;;;;;;13.50;99.90;;;;;;5020963;28;20359;-70
2022/09/02 05:29:01;;;;;;;;;;;13.50;99.90;;;;;;5003681;28;19980;-70
2022/09/02 05:31:27;;;;;;;;;;;13.50;99.90;;;;;;5004140;28;19921;-70
2022/09/02 05:33:53;;;;;;;;;;;13.50;99.90;;;;;;5002537;28;20391;-71
2022/09/02 05:36:20;;;;;;;;;;;13.50;99.90;;;;;;5002415;28;19976;-70
2022/09/02 05:38:45;;;;;;;;;;;13.60;99.90;;;;;;5002610;28;19932;-70
2022/09/02 05:41:14;;;;;;;;;;;13.60;99.90;;;;;;5001605;28;19930;-69
2022/09/02 05:43:42;;;;;;;;;;;13.60;99.90;;;;;;5002307;28;19930;-69
2022/09/02 05:46:08;;;;;;;;;;;13.60;99.90;;;;;;5002518;28;19969;-72
2022/09/02 05:51:20;;;;;;;;;;;13.70;99.90;;;;;;4999187;28;19933;-74
2022/09/02 05:53:45;;;;;;;;;;;13.70;99.90;;;;;;4997394;28;20399;-74
2022/09/02 05:56:11;;;;;;;;;;;13.70;99.90;;;;;;5001553;28;20050;-74
2022/09/02 05:58:36;;;;;;;;;;;13.80;99.90;;;;;;5001298;28;19926;-74
2022/09/02 06:01:12;;;;;;;;;;;13.80;99.90;;;;;;5002748;28;20008;-76
2022/09/02 06:03:38;;;;;;;;;;;13.80;99.90;;;;;;5002312;28;19933;-73
2022/09/02 06:06:04;;;;;;;;;;;13.90;99.90;;;;;;5001987;28;20304;-73
2022/09/02 06:08:30;;;;;;;;;;;13.90;99.90;;;;;;4997138;28;20294;-74
2022/09/02 06:10:56;;;;;;;;;;;13.90;99.90;;;;;;5002155;28;19931;-74
2022/09/02 06:13:21;;;;;;;;;;;13.90;99.90;;;;;;5034916;28;19932;-73
2022/09/02 06:15:49;;;;;;;;;;;13.90;99.90;;;;;;5003101;28;19980;-73
2022/09/02 06:18:16;;;;;;;;;;;14.00;99.90;;;;;;5003330;28;20013;-73
2022/09/02 06:20:46;;;;;;;;;;;14.00;99.90;;;;;;5003887;28;19937;-73
2022/09/02 06:23:12;;;;;;;;;;;14.10;99.90;;;;;;5036362;28;19929;-72
2022/09/02 06:25:38;;;;;;;;;;;14.10;99.90;;;;;;5004148;28;19949;-72
2022/09/02 06:28:03;;;;;;;;;;;14.10;99.90;;;;;;5005255;28;20432;-72
2022/09/02 06:30:29;;;;;;;;;;;14.10;99.90;;;;;;5002571;28;19961;-72
2022/09/02 06:32:54;;;;;;;;;;;14.20;99.90;;;;;;5006265;28;19926;-72
2022/09/02 06:35:20;;;;;;;;;;;14.20;99.90;;;;;;4992620;28;19926;-76
2022/09/02 06:37:46;;;;;;;;;;;14.30;99.90;;;;;;5003060;28;19925;-74
2022/09/02 06:40:13;;;;;;;;;;;14.30;99.90;;;;;;5003983;28;20169;-75
2022/09/02 06:42:39;;;;;;;;;;;14.40;99.90;;;;;;5006395;28;19932;-79
2022/09/02 06:45:05;;;;;;;;;;;14.40;99.90;;;;;;5006765;28;19925;-74
2022/09/02 06:47:31;;;;;;;;;;;14.40;99.90;;;;;;5005076;28;19996;-78
2022/09/02 06:49:56;;;;;;;;;;;14.50;99.90;;;;;;5005418;28;19972;-74
2022/09/02 06:52:22;;;;;;;;;;;14.50;99.90;;;;;;5004709;28;19926;-78
2022/09/02 06:54:49;;;;;;;;;;;14.50;99.90;;;;;;5005130;28;20234;-79
2022/09/02 06:57:15;;;;;;;;;;;14.60;99.90;;;;;;5004919;28;19925;-73
2022/09/02 06:59:40;;;;;;;;;;;14.60;99.90;;;;;;5008924;28;19935;-76
2022/09/02 07:02:06;;;;;;;;;;;14.70;99.90;;;;;;5005090;28;19972;-76
2022/09/02 07:07:16;;;;;;;;;;;14.80;99.90;;;;;;5003578;28;19980;-81
2022/09/02 07:09:41;;;;;;;;;;;14.90;99.90;;;;;;5004594;28;19929;-82
2022/09/02 07:12:07;;;;;;;;;;;14.90;99.90;;;;;;5004678;28;19917;-82
2022/09/02 07:14:37;;;;;;;;;;;15.00;99.90;;;;;;5003721;28;20610;-82
2022/09/02 07:17:02;;;;;;;;;;;15.00;99.90;;;;;;5001814;28;19948;-82
2022/09/02 07:19:30;;;;;;;;;;;15.10;99.90;;;;;;5004330;28;20371;-81
2022/09/02 07:21:56;;;;;;;;;;;15.10;99.90;;;;;;5004112;28;20121;-82
2022/09/02 07:24:24;;;;;;;;;;;15.20;99.90;;;;;;5004128;28;19933;-82
2022/09/02 07:26:53;;;;;;;;;;;15.20;99.90;;;;;;5004434;28;19925;-82
2022/09/02 07:29:18;;;;;;;;;;;15.30;99.90;;;;;;5004869;28;20035;-82
2022/09/02 07:31:45;;;;;;;;;;;15.40;99.90;;;;;;5003774;28;20391;-82
2022/09/02 07:34:11;;;;;;;;;;;15.40;99.90;;;;;;5004385;28;19925;-82
2022/09/02 07:36:37;;;;;;;;;;;15.50;99.90;;;;;;5003829;28;19932;-82
2022/09/02 07:39:04;;;;;;;;;;;15.50;99.90;;;;;;5004162;28;19925;-82
2022/09/02 07:41:30;;;;;;;;;;;15.60;99.90;;;;;;5004101;28;19925;-83
2022/09/02 07:43:55;;;;;;;;;;;15.70;99.90;;;;;;5004966;28;20284;-82
2022/09/02 07:46:21;;;;;;;;;;;15.70;99.90;;;;;;5002360;28;20103;-82
2022/09/02 07:48:50;;;;;;;;;;;15.70;99.90;;;;;;5003593;28;20125;-82
2022/09/02 07:51:16;;;;;;;;;;;15.80;99.90;;;;;;5003253;28;19992;-81
2022/09/02 07:53:43;;;;;;;;;;;15.90;99.90;;;;;;5003759;28;20408;-80
2022/09/02 07:56:10;;;;;;;;;;;15.90;99.90;;;;;;5004072;28;20020;-81
2022/09/02 07:58:36;;;;;;;;;;;16.00;99.90;;;;;;5003841;28;20063;-81
2022/09/02 08:01:03;;;;;;;;;;;16.00;99.90;;;;;;5003905;28;20016;-77
2022/09/02 08:03:29;;;;;;;;;;;16.10;99.90;;;;;;5003599;28;19933;-80
2022/09/02 08:05:56;;;;;;;;;;;16.20;99.90;;;;;;5003415;28;19925;-80
2022/09/02 08:08:22;;;;;;;;;;;16.20;99.90;;;;;;5003534;28;20307;-80
2022/09/02 08:10:48;;;;;;;;;;;16.30;99.90;;;;;;5003122;28;19948;-81
2022/09/02 08:13:14;;;;;;;;;;;16.40;99.90;;;;;;4993366;28;19921;-81
2022/09/02 08:15:40;;;;;;;;;;;16.40;99.90;;;;;;4990330;28;20016;-73
2022/09/02 08:18:06;;;;;;;;;;;16.50;99.90;;;;;;5002058;28;19941;-74
2022/09/02 08:20:32;;;;;;;;;;;16.60;99.90;;;;;;4999316;28;20372;-75
2022/09/02 08:22:57;;;;;;;;;;;16.60;99.90;;;;;;5002487;28;19925;-75
2022/09/02 08:25:23;;;;;;;;;;;16.70;99.90;;;;;;5003082;28;19925;-75
2022/09/02 08:27:49;;;;;;;;;;;16.70;99.90;;;;;;5001370;28;19930;-75
2022/09/02 08:30:14;;;;;;;;;;;16.70;99.90;;;;;;5003175;28;19926;-76
2022/09/02 08:32:40;;;;;;;;;;;16.80;99.90;;;;;;5003037;28;19929;-77
2022/09/02 08:35:07;;;;;;;;;;;16.80;99.90;;;;;;5002313;28;19930;-75
2022/09/02 08:37:33;;;;;;;;;;;16.90;99.90;;;;;;5003532;28;20296;-74
2022/09/02 08:39:59;;;;;;;;;;;17.00;99.90;;;;;;5002664;28;19925;-75
2022/09/02 08:42:30;;;;;;;;;;;17.10;99.90;;;;;;5003519;28;19926;-74
2022/09/02 08:44:59;;;;;;;;;;;17.10;99.90;;;;;;5001771;28;20395;-74
2022/09/02 08:47:28;;;;;;;;;;;17.20;99.90;;;;;;5002346;28;19930;-73
2022/09/02 08:49:59;;;;;;;;;;;17.20;99.90;;;;;;5001404;28;19933;-75
2022/09/02 08:52:44;;;;;;;;;;;17.30;99.90;;;;;;5002326;28;19925;-74
2022/09/02 08:55:15;;;;;;;;;;;17.30;99.90;;;;;;5002919;28;20323;-77
2022/09/02 08:57:42;;;;;;;;;;;17.40;99.90;;;;;;5001347;28;19972;-74
2022/09/02 09:00:08;;;;;;;;;;;17.40;99.90;;;;;;5000828;28;19995;-82
2022/09/02 09:02:55;;;;;;;;;;;17.50;99.90;;;;;;5001870;28;19929;-82
2022/09/02 09:05:27;;;;;;;;;;;17.60;99.90;;;;;;4998084;28;20060;-82
2022/09/02 09:08:09;;;;;;;;;;;17.60;99.90;;;;;;5033850;28;19925;-82
2022/09/02 09:10:38;;;;;;;;;;;17.70;99.90;;;;;;5002693;28;19930;-82
2022/09/02 09:13:13;;;;;;;;;;;17.70;99.90;;;;;;5002784;28;19925;-82
2022/09/02 09:15:46;;;;;;;;;;;17.70;99.90;;;;;;5002607;28;19932;-82
2022/09/02 09:18:16;;;;;;;;;;;17.80;99.90;;;;;;5001415;28;19925;-84
2022/09/02 09:20:42;;;;;;;;;;;17.80;99.90;;;;;;5001612;28;20016;-84
2022/09/02 09:23:17;;;;;;;;;;;17.90;99.90;;;;;;5002497;28;19933;-85
2022/09/02 09:25:43;;;;;;;;;;;17.90;99.90;;;;;;5003331;28;19926;-84
2022/09/02 09:28:09;;;;;;;;;;;18.00;99.90;;;;;;5003055;28;19933;-86
2022/09/02 09:30:34;;;;;;;;;;;18.00;99.90;;;;;;5001971;28;19945;-86
2022/09/02 09:33:00;;;;;;;;;;;18.10;99.90;;;;;;5002722;28;19926;-86
2022/09/02 09:35:26;;;;;;;;;;;18.10;99.90;;;;;;5002367;28;20457;-80
2022/09/02 09:37:53;;;;;;;;;;;18.20;99.90;;;;;;4983317;28;20008;-85
2022/09/02 09:40:24;;;;;;;;;;;18.20;99.90;;;;;;4984658;28;19937;-86
2022/09/02 09:43:04;;;;;;;;;;;18.30;99.90;;;;;;4992114;28;20039;-84
2022/09/02 09:45:31;;;;;;;;;;;18.40;99.90;;;;;;5004182;28;19957;-81
2022/09/02 09:48:06;;;;;;;;;;;18.50;99.90;;;;;;5005084;28;19930;-81
2022/09/02 09:50:31;;;;;;;;;;;18.50;99.90;;;;;;5005176;28;19925;-81
2022/09/02 09:53:13;;;;;;;;;;;18.60;99.90;;;;;;5006585;28;19932;-81
2022/09/02 09:55:48;;;;;;;;;;;18.60;99.90;;;;;;5004984;28;19933;-80
2022/09/02 09:58:14;;;;;;;;;;;18.60;99.90;;;;;;5006014;28;20406;-81
2022/09/02 10:00:40;;;;;;;;;;;18.70;99.90;;;;;;5006304;28;19972;-82
2022/09/02 10:03:07;;;;;;;;;;;18.80;99.90;;;;;;5005913;28;19926;-81
2022/09/02 10:05:37;;;;;;;;;;;18.80;99.90;;;;;;5003741;28;19930;-81
2022/09/02 10:08:04;;;;;;;;;;;18.80;99.90;;;;;;5005660;28;20323;-80
2022/09/02 10:10:30;;;;;;;;;;;18.90;99.90;;;;;;5005895;28;19926;-80
2022/09/02 10:12:58;;;;;;;;;;;18.90;99.90;;;;;;5002493;28;19941;-80
2022/09/02 10:15:28;;;;;;;;;;;19.00;99.90;;;;;;4998387;28;19945;-81
2022/09/02 10:18:00;;;;;;;;;;;19.00;99.90;;;;;;4992140;28;20486;-83
2022/09/02 10:20:38;;;;;;;;;;;19.00;99.90;;;;;;4982471;28;20177;-82
2022/09/02 10:23:14;;;;;;;;;;;19.10;99.90;;;;;;4985017;28;20392;-82
2022/09/02 10:25:43;;;;;;;;;;;19.10;99.90;;;;;;4985319;28;20313;-82
2022/09/02 10:28:25;;;;;;;;;;;19.20;99.90;;;;;;4985812;28;20165;-82
2022/09/02 10:31:29;;;;;;;;;;;19.20;99.90;;;;;;4998035;28;20452;-80
2022/09/02 10:34:11;;;;;;;;;;;19.30;99.90;;;;;;4947355;28;20017;-80
2022/09/02 10:36:54;;;;;;;;;;;19.40;99.90;;;;;;4943089;28;19986;-79
2022/09/02 10:39:40;;;;;;;;;;;19.40;99.90;;;;;;4975351;28;19933;-80
2022/09/02 10:42:12;;;;;;;;;;;19.40;99.90;;;;;;4984443;28;19933;-80
2022/09/02 10:44:44;;;;;;;;;;;19.40;99.90;;;;;;4992978;28;19921;-80
2022/09/02 10:47:18;;;;;;;;;;;19.50;99.90;;;;;;4995596;28;19971;-80
2022/09/02 10:49:58;;;;;;;;;;;19.50;99.70;;;;;;4993872;28;20375;-80
2022/09/02 10:52:42;;;;;;;;;;;19.50;99.90;;;;;;4989242;28;19925;-80
2022/09/02 10:55:08;;;;;;;;;;;19.50;99.90;;;;;;4986899;28;19998;-80
2022/09/02 10:57:45;;;;;;;;;;;19.60;99.90;;;;;;4993341;28;20032;-80
2022/09/02 11:00:16;;;;;;;;;;;19.60;99.90;;;;;;4992523;28;19988;-79
2022/09/02 11:03:09;;;;;;;;;;;19.70;99.10;;;;;;4989089;28;20284;-78
2022/09/02 11:05:44;;;;;;;;;;;19.70;99.60;;;;;;4996054;28;20009;-80
2022/09/02 11:08:24;;;;;;;;;;;19.80;98.70;;;;;;4994316;28;19932;-80
2022/09/02 11:11:03;;;;;;;;;;;19.80;99.90;;;;;;4995340;28;19992;-79
2022/09/02 11:13:41;;;;;;;;;;;19.90;99.30;;;;;;5034064;28;19975;-79
2022/09/02 11:16:13;;;;;;;;;;;19.90;99.90;;;;;;5003939;28;20104;-79
2022/09/02 11:18:48;;;;;;;;;;;19.90;99.70;;;;;;5003835;28;20217;-79
2022/09/02 11:21:26;;;;;;;;;;;20.00;99.90;;;;;;5003507;28;19925;-81
2022/09/02 11:23:51;;;;;;;;;;;20.00;99.70;;;;;;5004356;28;20319;-79
2022/09/02 11:26:26;;;;;;;;;;;20.10;98.80;;;;;;5004467;28;19922;-79
2022/09/02 11:29:09;;;;;;;;;;;20.20;98.20;;;;;;5003705;28;19933;-79
2022/09/02 11:31:48;;;;;;;;;;;20.20;98.30;;;;;;5003322;28;19925;-80
2022/09/02 11:34:20;;;;;;;;;;;20.30;98.00;;;;;;5001877;28;19926;-80
2022/09/02 11:36:45;;;;;;;;;;;20.40;97.00;;;;;;4996351;28;19925;-82
2022/09/02 11:39:15;;;;;;;;;;;20.40;96.30;;;;;;5004471;28;19931;-81
2022/09/02 11:42:00;;;;;;;;;;;20.50;96.20;;;;;;5001933;28;19932;-81
2022/09/02 11:44:29;;;;;;;;;;;20.50;95.40;;;;;;5018547;28;19925;-81
2022/09/02 11:47:14;;;;;;;;;;;20.60;96.60;;;;;;5022230;28;19964;-81
2022/09/02 11:49:39;;;;;;;;;;;20.60;95.50;;;;;;5003561;28;19926;-81
2022/09/02 11:52:07;;;;;;;;;;;20.60;96.00;;;;;;5004446;28;19975;-83
2022/09/02 11:54:35;;;;;;;;;;;20.60;95.20;;;;;;5003728;28;19968;-81
2022/09/02 11:57:03;;;;;;;;;;;20.60;95.90;;;;;;5006430;28;19968;-80
2022/09/02 11:59:47;;;;;;;;;;;20.70;94.10;;;;;;5004035;28;19925;-81
2022/09/02 12:02:29;;;;;;;;;;;20.70;95.60;;;;;;5004753;28;19926;-81
2022/09/02 12:05:14;;;;;;;;;;;20.80;96.10;;;;;;5002883;28;19968;-79
2022/09/02 12:07:48;;;;;;;;;;;20.80;95.70;;;;;;4996084;28;19932;-82
2022/09/02 12:10:33;;;;;;;;;;;20.80;95.70;;;;;;4999850;28;19964;-81
2022/09/02 12:12:59;;;;;;;;;;;20.90;95.00;;;;;;4997652;28;19926;-80
2022/09/02 12:15:24;;;;;;;;;;;20.80;95.50;;;;;;4998931;28;19925;-81
2022/09/02 12:17:50;;;;;;;;;;;20.90;95.60;;;;;;4999199;28;20360;-81
2022/09/02 12:20:34;;;;;;;;;;;21.00;95.00;;;;;;5000468;28;20455;-80
2022/09/02 12:23:00;;;;;;;;;;;21.00;94.00;;;;;;4996834;28;20050;-81
2022/09/02 12:25:27;;;;;;;;;;;21.10;92.30;;;;;;4994369;28;19984;-81
2022/09/02 12:28:14;;;;;;;;;;;21.10;94.00;;;;;;4998407;28;19988;-81
2022/09/02 12:30:55;;;;;;;;;;;21.20;93.60;;;;;;4993706;28;19941;-81
2022/09/02 12:33:29;;;;;;;;;;;21.20;92.20;;;;;;4989829;28;19948;-80
2022/09/02 12:35:56;;;;;;;;;;;21.30;91.90;;;;;;4987817;28;19926;-81
2022/09/02 12:38:26;;;;;;;;;;;21.30;90.80;;;;;;4983775;28;19929;-82
2022/09/02 12:40:54;;;;;;;;;;;21.30;93.50;;;;;;4983909;28;19952;-81
2022/09/02 12:43:25;;;;;;;;;;;21.30;93.00;;;;;;4999277;28;19925;-81
2022/09/02 12:45:53;;;;;;;;;;;21.30;92.90;;;;;;5031346;28;19925;-80
2022/09/02 12:48:22;;;;;;;;;;;21.30;92.40;;;;;;5002423;28;20137;-81
2022/09/02 12:50:52;;;;;;;;;;;21.40;92.80;;;;;;5000660;28;20143;-81
2022/09/02 12:53:35;;;;;;;;;;;21.30;92.10;;;;;;5004363;28;19951;-81
2022/09/02 12:56:03;;;;;;;;;;;21.40;92.20;;;;;;4992749;28;19925;-81
2022/09/02 12:58:32;;;;;;;;;;;21.40;92.00;;;;;;5001846;28;19925;-78
2022/09/02 13:01:04;;;;;;;;;;;21.40;92.60;;;;;;4993388;28;20296;-81
2022/09/02 13:03:37;;;;;;;;;;;21.50;91.80;;;;;;5034249;28;19925;-81
2022/09/02 13:06:08;;;;;;;;;;;21.50;92.70;;;;;;5012040;28;19925;-81
2022/09/02 13:08:44;;;;;;;;;;;21.50;91.80;;;;;;5014951;28;19925;-80
2022/09/02 13:11:29;;;;;;;;;;;21.50;91.70;;;;;;5002866;28;19926;-81
2022/09/02 13:14:12;;;;;;;;;;;21.60;91.80;;;;;;5007945;28;20081;-81
2022/09/02 13:16:43;;;;;;;;;;;21.50;90.40;;;;;;5018562;28;19925;-79
2022/09/02 13:19:10;;;;;;;;;;;21.60;91.90;;;;;;5003071;28;20016;-81
2022/09/02 13:21:48;;;;;;;;;;;21.60;91.80;;;;;;5008210;28;19932;-81
2022/09/02 13:24:33;;;;;;;;;;;21.70;92.20;;;;;;5012306;28;20052;-80
2022/09/02 13:27:17;;;;;;;;;;;21.70;91.40;;;;;;5002497;28;19967;-81
2022/09/02 13:29:42;;;;;;;;;;;21.80;90.30;;;;;;4987396;28;19930;-81
2022/09/02 13:32:08;;;;;;;;;;;21.80;88.80;;;;;;5008173;28;19918;-81
2022/09/02 13:34:39;;;;;;;;;;;21.80;90.30;;;;;;5001554;28;19925;-81
2022/09/02 13:37:09;;;;;;;;;;;21.70;90.30;;;;;;5002782;28;20062;-80
2022/09/02 13:39:36;;;;;;;;;;;21.80;89.80;;;;;;5003109;28;20068;-80
2022/09/02 13:42:12;;;;;;;;;;;21.80;90.10;;;;;;5002065;28;19929;-80
2022/09/02 13:44:38;;;;;;;;;;;21.80;89.20;;;;;;5004760;28;19979;-80
2022/09/02 13:47:12;;;;;;;;;;;21.80;85.80;;;;;;5010279;28;20299;-80
2022/09/02 13:49:39;;;;;;;;;;;21.90;90.70;;;;;;5001274;28;20005;-81
2022/09/02 13:52:06;;;;;;;;;;;21.90;90.20;;;;;;5002963;28;19972;-84
2022/09/02 13:54:33;;;;;;;;;;;21.90;87.00;;;;;;4984413;28;19925;-84
2022/09/02 13:57:00;;;;;;;;;;;22.00;86.30;;;;;;5002222;28;19979;-82
2022/09/02 13:59:32;;;;;;;;;;;22.00;84.80;;;;;;5002537;28;19955;-84
2022/09/02 14:01:57;;;;;;;;;;;22.00;87.40;;;;;;4998170;28;20411;-84
2022/09/02 14:04:23;;;;;;;;;;;22.10;90.30;;;;;;4990877;28;19926;-84
2022/09/02 14:06:50;;;;;;;;;;;22.10;87.60;;;;;;4997067;28;19930;-85
2022/09/02 14:09:25;;;;;;;;;;;22.10;86.20;;;;;;5002475;28;19948;-83
2022/09/02 14:11:52;;;;;;;;;;;22.10;85.60;;;;;;5002023;28;19925;-84
2022/09/02 14:14:22;;;;;;;;;;;22.10;84.50;;;;;;5002251;28;19925;-85
2022/09/02 14:16:48;;;;;;;;;;;22.10;82.70;;;;;;5002230;28;20328;-85
2022/09/02 14:19:13;;;;;;;;;;;22.10;84.20;;;;;;4998392;28;19933;-79
2022/09/02 14:21:51;;;;;;;;;;;22.10;86.60;;;;;;5001734;28;20439;-78
2022/09/02 14:24:20;;;;;;;;;;;22.20;83.60;;;;;;5005295;28;19929;-78
2022/09/02 14:26:47;;;;;;;;;;;22.20;83.30;;;;;;5003380;28;19930;-79
2022/09/02 14:29:16;;;;;;;;;;;22.20;85.90;;;;;;4993511;28;19929;-78
2022/09/02 14:31:42;;;;;;;;;;;22.30;84.10;;;;;;4994918;28;19930;-78